Tuesday, October 23, 2018, 9:30 PM EDT
Back to Local

KLEW, Auburn-lewiston

Location: Auburn, ME, United States Lat: 44.05
Local Time: 9:30 PM EDT ( 1:30 GMT) Lon: -70.283
Time Zone: US/Eastern Elev: 288 ft

Show me the last for .
Show Decoded

2018-10-23 20:56 METAR KLEW 240056Z AUTO 03010KT 10SM RA OVC007 04/03 A2996 RMK AO2 SLP163 P0005
                 T00390033 =
2018-10-23 20:32 METAR KLEW 240032Z AUTO 02013KT 10SM RA BKN007 BKN021 OVC036 04/03 A2996 RMK AO2
                 P0002 =
2018-10-23 20:24 METAR KLEW 240024Z AUTO 03013KT 10SM -RA SCT007 BKN021 OVC036 04/03 A2996 RMK
                 AO2 P0001 =
2018-10-23 20:10 METAR KLEW 240010Z AUTO 03013KT 10SM -RA FEW009 BKN037 OVC050 04/03 A2996 RMK
                 AO2 P0001 =
2018-10-23 19:56 METAR KLEW 232356Z AUTO 03013KT 10SM RA FEW026 BKN040 OVC050 04/03 A2996 RMK AO2
                 RAB47 SLP163 P0000 60005 T00390028 10067 20039 56019 =
2018-10-23 19:04 METAR KLEW 232304Z AUTO 03015KT 10SM FEW007 BKN036 OVC060 04/03 A2997 RMK AO2 =
2018-10-23 18:56 METAR KLEW 232256Z AUTO 02014KT 10SM SCT028 BKN034 OVC060 04/03 A2998 RMK AO2
                 PRESFR SLP168 T00440033 =
2018-10-23 18:35 METAR KLEW 232235Z AUTO 03010KT 10SM BKN028 OVC055 04/03 A3000 RMK AO2 =
2018-10-23 17:56 METAR KLEW 232156Z AUTO 05009KT 10SM FEW060 BKN075 04/03 A2999 RMK AO2 SLP173
                 T00440033 =
2018-10-23 17:07 METAR KLEW 232107Z AUTO 04010KT 10SM SCT028 OVC070 04/03 A3002 RMK AO2 =
2018-10-23 16:56 METAR KLEW 232056Z AUTO 05010G15KT 10SM BKN028 BKN040 OVC075 04/03 A3002 RMK AO2
                 RAE10 SLP182 P0000 60005 T00440033 57026 =
2018-10-23 16:28 METAR KLEW 232028Z AUTO 04010KT 10SM BKN026 OVC040 05/04 A3003 RMK AO2 RAE10
                 P0000 =
2018-10-23 15:56 METAR KLEW 231956Z AUTO 03011KT 10SM -RA SCT028 BKN036 OVC080 05/04 A3004 RMK
                 AO2 SLP190 P0001 T00500039 =
2018-10-23 15:49 METAR KLEW 231949Z AUTO 04010KT 10SM -RA BKN028 BKN038 OVC050 05/03 A3005 RMK
                 AO2 P0001 =
2018-10-23 14:56 METAR KLEW 231856Z AUTO 03005KT 10SM -RA FEW026 OVC034 06/03 A3008 RMK AO2
                 SLP201 P0004 T00560033 =
2018-10-23 14:40 METAR KLEW 231840Z AUTO 03005KT 8SM -RA SCT024 OVC034 06/04 A3008 RMK AO2 P0003
                 =
2018-10-23 14:06 METAR KLEW 231806Z AUTO 06004KT 8SM -RA SCT025 BKN029 OVC041 06/02 A3010 RMK AO2
                 P0000 =
2018-10-23 13:56 METAR KLEW 231756Z AUTO 03007KT 10SM -RA SCT025 BKN031 OVC055 07/01 A3010 RMK
                 AO2 RAB25 SLP210 P0000 60000 T00670011 10072 20017 58018 =
2018-10-23 12:56 METAR KLEW 231656Z AUTO 05004KT 10SM BKN065 07/01 A3013 RMK AO2 SLP219 T00720006
                 =
2018-10-23 11:56 METAR KLEW 231556Z AUTO 02004KT 10SM OVC070 06/M01 A3014 RMK AO2 SLP224
                 T00611006 =
2018-10-23 10:56 METAR KLEW 231456Z AUTO 05005KT 10SM SCT080 BKN090 04/M02 A3015 RMK AO2 SLP227
                 T00441017 58006 =
2018-10-23 09:56 METAR KLEW 231356Z AUTO 02009KT 10SM FEW075 SCT100 04/M02 A3017 RMK AO2 SLP232
                 T00391022 =
2018-10-23 08:56 METAR KLEW 231256Z AUTO 01007KT 10SM FEW070 BKN095 02/M02 A3017 RMK AO2 SLP235
                 T00221022 FZRANO =
2018-10-23 07:56 METAR KLEW 231156Z AUTO 01005KT 10SM FEW065 OVC100 02/M01 A3017 RMK AO2 SLP233
                 T00171011 10017 21006 53003 FZRANO =
2018-10-23 06:56 METAR KLEW 231056Z AUTO 00000KT 10SM BKN065 OVC095 01/M02 A3016 RMK AO2 SLP231
                 T00111017 FZRANO =
2018-10-23 05:56 METAR KLEW 230956Z AUTO 00000KT 10SM BKN070 OVC090 01/M02 A3016 RMK AO2 SLP231
                 T00061017 FZRANO =
2018-10-23 04:56 METAR KLEW 230856Z AUTO 00000KT 10SM OVC090 01/M01 A3016 RMK AO2 SLP231
                 T00061011 55004 FZRANO =
2018-10-23 03:56 METAR KLEW 230756Z AUTO 02003KT 10SM OVC085 00/M02 A3015 RMK AO2 SLP229
                 T00001017 FZRANO =
2018-10-23 02:56 METAR KLEW 230656Z AUTO 00000KT 10SM SCT060 OVC080 00/M02 A3016 RMK AO2 SLP230
                 T00001022 FZRANO =
2018-10-23 01:56 METAR KLEW 230556Z AUTO 00000KT 10SM OVC070 M01/M03 A3017 RMK AO2 SLP235
                 T10061028 10039 21022 58001 FZRANO =
2018-10-22 23:56 METAR KLEW 230356Z AUTO 00000KT 10SM OVC080 M01/M03 A3018 RMK AO2 SLP235
                 T10111033 400781022 FZRANO =
2018-10-22 22:56 METAR KLEW 230256Z AUTO 00000KT 10SM BKN100 M02/M04 A3018 RMK AO2 SLP235
                 T10171039 51011 FZRANO =
2018-10-22 21:56 METAR KLEW 230156Z AUTO 00000KT 10SM FEW100 M02/M04 A3017 RMK AO2 SLP232
                 T10171039 FZRANO =

Support USWX by starting your Amazon purchase here.